createdAt,value
2023-05-13T00:00:35.772Z,6.22
2023-05-13T00:01:35.782Z,6.41
2023-05-13T00:02:35.899Z,6.05
2023-05-13T00:03:35.993Z,5.75
2023-05-13T00:04:35.859Z,5.75
2023-05-13T00:05:35.864Z,6.13
2023-05-13T00:06:35.923Z,7.02
2023-05-13T00:07:35.944Z,8.50
2023-05-13T00:08:35.888Z,14.79
2023-05-13T00:09:35.923Z,15.25
2023-05-13T00:10:35.946Z,14.03
2023-05-13T00:11:35.990Z,11.17
2023-05-13T00:12:36.001Z,9.96
2023-05-13T00:13:35.989Z,8.42
2023-05-13T00:14:36.029Z,7.39
2023-05-13T00:15:36.016Z,6.76
2023-05-13T00:16:36.098Z,7.15
2023-05-13T00:17:36.150Z,6.98
2023-05-13T00:18:36.110Z,6.93
2023-05-13T00:19:36.087Z,6.51
2023-05-13T00:20:36.103Z,6.11
2023-05-13T00:21:36.125Z,5.10
2023-05-13T00:22:36.131Z,4.61
2023-05-13T00:23:36.152Z,4.59
2023-05-13T00:24:36.145Z,4.68
2023-05-13T00:25:36.195Z,4.96
2023-05-13T00:26:36.194Z,4.97
2023-05-13T00:27:36.193Z,4.53
2023-05-13T00:28:36.206Z,4.08
2023-05-13T00:29:36.261Z,3.88
2023-05-13T00:30:36.267Z,3.72
2023-05-13T00:31:36.325Z,3.62
2023-05-13T00:32:36.332Z,3.80
2023-05-13T00:33:36.289Z,4.04
2023-05-13T00:34:36.309Z,3.87
2023-05-13T00:35:36.299Z,3.80
2023-05-13T00:36:36.316Z,3.69
2023-05-13T00:37:36.342Z,3.83
2023-05-13T00:38:36.349Z,3.76
2023-05-13T00:39:36.339Z,3.69
2023-05-13T00:40:36.370Z,3.73
2023-05-13T00:41:36.396Z,3.85
2023-05-13T00:42:36.383Z,3.75
2023-05-13T00:43:36.405Z,3.51
2023-05-13T00:44:36.425Z,3.41
2023-05-13T00:45:36.508Z,3.38
2023-05-13T00:46:36.475Z,3.52
2023-05-13T00:47:36.480Z,3.85
2023-05-13T00:48:36.502Z,4.36
2023-05-13T00:49:36.507Z,6.03
2023-05-13T00:50:36.536Z,7.49
2023-05-13T00:51:36.546Z,6.97
2023-05-13T00:52:36.557Z,6.70
2023-05-13T00:53:36.552Z,6.57
2023-05-13T00:54:36.570Z,6.76
2023-05-13T00:55:36.596Z,6.57
2023-05-13T00:56:36.588Z,6.53
2023-05-13T00:57:36.609Z,6.83
2023-05-13T00:58:36.610Z,6.91
2023-05-13T00:59:36.627Z,6.98
2023-05-13T01:00:36.652Z,6.89
2023-05-13T01:01:36.812Z,6.85
2023-05-13T01:02:36.816Z,6.86
2023-05-13T01:03:36.749Z,7.01
2023-05-13T01:04:36.731Z,7.37
2023-05-13T01:05:36.729Z,8.46
2023-05-13T01:06:36.771Z,8.02
2023-05-13T01:07:36.764Z,7.49
2023-05-13T01:08:36.820Z,7.41
2023-05-13T01:09:36.786Z,7.56
2023-05-13T01:10:36.770Z,7.36
2023-05-13T01:11:36.767Z,7.56
2023-05-13T01:12:36.806Z,7.78
2023-05-13T01:13:36.843Z,8.25
2023-05-13T01:14:36.817Z,8.13
2023-05-13T01:15:36.835Z,8.05
2023-05-13T01:16:36.914Z,8.45
2023-05-13T01:17:36.915Z,7.97
2023-05-13T01:18:36.921Z,7.30
2023-05-13T01:19:36.887Z,6.77
2023-05-13T01:20:36.861Z,6.70
2023-05-13T01:21:36.877Z,6.47
2023-05-13T01:22:36.916Z,6.08
2023-05-13T01:23:36.890Z,5.61
2023-05-13T01:24:36.921Z,5.31
2023-05-13T01:25:36.937Z,5.72
2023-05-13T01:26:36.902Z,5.68
2023-05-13T01:27:36.913Z,5.33
2023-05-13T01:28:36.932Z,4.83
2023-05-13T01:29:36.932Z,4.72
2023-05-13T01:30:36.936Z,4.43
2023-05-13T01:31:36.987Z,4.36
2023-05-13T01:32:36.981Z,4.37
2023-05-13T01:33:36.971Z,5.13
2023-05-13T01:34:36.972Z,5.70
2023-05-13T01:35:36.992Z,6.48
2023-05-13T01:36:36.984Z,7.04
2023-05-13T01:37:37.001Z,7.23
2023-05-13T01:38:36.997Z,7.07
2023-05-13T01:39:37.001Z,6.69
2023-05-13T01:40:37.294Z,6.65
2023-05-13T01:41:37.031Z,6.61
2023-05-13T01:42:37.041Z,6.73
2023-05-13T01:43:37.063Z,7.04
2023-05-13T01:44:37.084Z,6.71
2023-05-13T01:45:37.090Z,6.58
2023-05-13T01:46:37.153Z,6.86
2023-05-13T01:47:37.132Z,6.98
2023-05-13T01:48:37.153Z,7.18
2023-05-13T01:49:37.173Z,7.13
2023-05-13T01:50:37.189Z,6.24
2023-05-13T01:51:37.207Z,5.66
2023-05-13T01:52:37.241Z,5.55
2023-05-13T01:53:37.252Z,5.97
2023-05-13T01:54:37.264Z,6.52
2023-05-13T01:55:37.274Z,6.36
2023-05-13T01:56:37.298Z,6.61
2023-05-13T01:57:37.309Z,6.90
2023-05-13T01:58:37.303Z,6.95
2023-05-13T01:59:37.331Z,7.12
2023-05-13T02:00:37.342Z,7.28
2023-05-13T02:01:37.384Z,7.63
2023-05-13T02:02:37.423Z,8.17
2023-05-13T02:03:37.547Z,8.66
2023-05-13T02:04:37.383Z,8.80
2023-05-13T02:05:37.400Z,8.63
2023-05-13T02:06:37.402Z,7.63
2023-05-13T02:07:37.426Z,6.95
2023-05-13T02:08:37.424Z,6.51
2023-05-13T02:09:37.425Z,6.26
2023-05-13T02:10:37.446Z,6.20
2023-05-13T02:11:37.461Z,6.07
2023-05-13T02:12:37.455Z,6.30
2023-05-13T02:13:37.489Z,6.27
2023-05-13T02:14:37.486Z,6.06
2023-05-13T02:15:37.491Z,6.12
2023-05-13T02:16:37.589Z,6.20
2023-05-13T02:17:37.564Z,6.16
2023-05-13T02:18:37.535Z,5.89
2023-05-13T02:19:37.618Z,6.00
2023-05-13T02:20:37.545Z,6.98
2023-05-13T02:21:37.549Z,8.19
2023-05-13T02:22:37.561Z,9.20
2023-05-13T02:23:37.584Z,11.44
2023-05-13T02:24:37.607Z,12.93
2023-05-13T02:25:37.596Z,13.19
2023-05-13T02:26:37.619Z,13.40
2023-05-13T02:27:37.632Z,14.52
2023-05-13T02:28:37.657Z,14.98
2023-05-13T02:29:38.334Z,14.52
2023-05-13T02:30:37.686Z,14.18
2023-05-13T02:31:37.723Z,13.47
2023-05-13T02:32:37.737Z,13.11
2023-05-13T02:33:37.707Z,12.51
2023-05-13T02:34:37.796Z,11.92
2023-05-13T02:35:37.739Z,11.75
2023-05-13T02:36:37.742Z,11.40
2023-05-13T02:37:37.745Z,12.12
2023-05-13T02:38:37.760Z,12.41
2023-05-13T02:39:37.761Z,12.94
2023-05-13T02:40:37.779Z,13.20
2023-05-13T02:41:37.795Z,13.39
2023-05-13T02:42:37.808Z,13.99
2023-05-13T02:43:37.833Z,14.12
2023-05-13T02:44:37.833Z,14.29
2023-05-13T02:45:37.875Z,14.96
2023-05-13T02:46:37.873Z,15.82
2023-05-13T02:47:37.906Z,18.22
2023-05-13T02:48:37.892Z,19.49
2023-05-13T02:49:37.909Z,20.50
2023-05-13T02:50:37.948Z,20.98
2023-05-13T02:51:37.940Z,21.09
2023-05-13T02:52:37.962Z,20.94
2023-05-13T02:53:37.960Z,21.04
2023-05-13T02:54:38.020Z,20.94
2023-05-13T02:55:37.975Z,20.66
2023-05-13T02:56:38.003Z,19.09
2023-05-13T02:57:38.036Z,17.09
2023-05-13T02:58:38.045Z,15.76
2023-05-13T02:59:38.051Z,15.06
2023-05-13T03:00:38.062Z,14.37
2023-05-13T03:01:38.141Z,14.70
2023-05-13T03:02:38.115Z,15.46
2023-05-13T03:03:38.192Z,16.68
2023-05-13T03:04:38.117Z,17.86
2023-05-13T03:05:38.131Z,19.48
2023-05-13T03:06:38.156Z,20.01
2023-05-13T03:07:38.212Z,20.36
2023-05-13T03:08:38.204Z,19.84
2023-05-13T03:09:38.236Z,19.75
2023-05-13T03:10:38.264Z,20.94
2023-05-13T03:11:38.308Z,21.27
2023-05-13T03:12:38.314Z,22.88
2023-05-13T03:13:38.380Z,23.70
2023-05-13T03:14:38.394Z,24.27
2023-05-13T03:15:38.423Z,25.72
2023-05-13T03:16:38.593Z,26.23
2023-05-13T03:17:38.459Z,25.86
2023-05-13T03:18:38.459Z,25.14
2023-05-13T03:19:38.455Z,24.18
2023-05-13T03:20:38.525Z,22.84
2023-05-13T03:21:38.529Z,22.36
2023-05-13T03:22:38.564Z,20.95
2023-05-13T03:23:38.627Z,21.22
2023-05-13T03:24:38.648Z,20.60
2023-05-13T03:25:38.692Z,21.04
2023-05-13T03:26:38.728Z,20.79
2023-05-13T03:27:38.767Z,20.61
2023-05-13T03:28:38.800Z,20.37
2023-05-13T03:29:38.839Z,20.04
2023-05-13T03:30:38.877Z,19.39
2023-05-13T03:31:38.923Z,19.04
2023-05-13T03:32:38.986Z,18.40
2023-05-13T03:33:38.977Z,17.64
2023-05-13T03:34:39.016Z,18.04
2023-05-13T03:35:39.050Z,18.85
2023-05-13T03:36:39.109Z,19.45
2023-05-13T03:37:39.130Z,18.87
2023-05-13T03:38:39.169Z,17.95
2023-05-13T03:39:39.205Z,16.16
2023-05-13T03:40:39.239Z,15.06
2023-05-13T03:41:39.263Z,14.07
2023-05-13T03:42:39.317Z,12.22
2023-05-13T03:43:39.322Z,10.42
2023-05-13T03:44:39.363Z,9.44
2023-05-13T03:45:39.411Z,9.18
2023-05-13T03:46:39.473Z,9.39
2023-05-13T03:47:39.551Z,9.48
2023-05-13T03:48:39.503Z,9.39
2023-05-13T03:49:39.548Z,9.42
2023-05-13T03:50:39.566Z,9.52
2023-05-13T03:51:39.624Z,9.46
2023-05-13T03:52:39.632Z,8.16
2023-05-13T03:53:39.657Z,7.32
2023-05-13T03:54:39.696Z,7.14
2023-05-13T03:55:39.721Z,6.41
2023-05-13T03:56:39.772Z,6.06
2023-05-13T03:57:39.790Z,5.72
2023-05-13T03:58:39.834Z,5.50
2023-05-13T03:59:39.847Z,5.44
2023-05-13T04:00:39.886Z,5.23
2023-05-13T04:01:39.996Z,5.31
2023-05-13T04:02:40.000Z,4.92
2023-05-13T04:03:39.980Z,4.84
2023-05-13T04:04:40.032Z,4.54
2023-05-13T04:05:40.097Z,4.38
2023-05-13T04:06:40.088Z,4.43
2023-05-13T04:07:40.137Z,4.58
2023-05-13T04:08:40.183Z,4.94
2023-05-13T04:09:40.193Z,5.37
2023-05-13T04:10:40.249Z,6.21
2023-05-13T04:11:40.299Z,7.31
2023-05-13T04:12:40.329Z,9.22
2023-05-13T04:13:40.350Z,12.14
2023-05-13T04:14:40.398Z,14.73
2023-05-13T04:15:40.445Z,17.41
2023-05-13T04:16:40.516Z,20.65
2023-05-13T04:17:40.525Z,21.91
2023-05-13T04:18:40.558Z,23.32
2023-05-13T04:19:40.555Z,24.41
2023-05-13T04:20:40.614Z,25.17
2023-05-13T04:21:40.635Z,26.01
2023-05-13T04:22:40.665Z,27.14
2023-05-13T04:23:40.696Z,30.29
2023-05-13T04:24:40.707Z,31.38
2023-05-13T04:25:40.725Z,33.34
2023-05-13T04:26:40.771Z,34.60
2023-05-13T04:27:40.809Z,34.67
2023-05-13T04:28:40.821Z,34.99
2023-05-13T04:29:40.850Z,35.96
2023-05-13T04:30:40.897Z,33.72
2023-05-13T04:31:40.966Z,30.91
2023-05-13T04:32:40.997Z,29.39
2023-05-13T04:33:40.959Z,27.19
2023-05-13T04:34:40.989Z,27.49
2023-05-13T04:35:41.011Z,28.08
2023-05-13T04:36:41.057Z,29.03
2023-05-13T04:37:41.068Z,27.84
2023-05-13T04:38:41.088Z,25.34
2023-05-13T04:39:41.098Z,22.23
2023-05-13T04:40:41.132Z,19.64
2023-05-13T04:41:41.142Z,17.98
2023-05-13T04:42:41.190Z,16.22
2023-05-13T04:43:41.189Z,14.50
2023-05-13T04:44:41.232Z,13.64
2023-05-13T04:45:41.236Z,12.15
2023-05-13T04:46:41.355Z,11.93
2023-05-13T04:47:41.297Z,10.51
2023-05-13T04:48:41.273Z,9.46
2023-05-13T04:49:41.289Z,8.81
2023-05-13T04:50:41.295Z,7.79
2023-05-13T04:51:41.311Z,6.81
2023-05-13T04:52:41.315Z,6.41
2023-05-13T04:53:41.338Z,6.10
2023-05-13T04:54:41.345Z,5.99
2023-05-13T04:55:41.363Z,6.63
2023-05-13T04:56:41.382Z,7.18
2023-05-13T04:57:41.389Z,7.72
2023-05-13T04:58:41.438Z,8.03
2023-05-13T04:59:41.420Z,8.74
2023-05-13T05:00:41.437Z,9.05
2023-05-13T05:01:41.530Z,9.00
2023-05-13T05:02:41.476Z,7.93
2023-05-13T05:03:41.551Z,7.45
2023-05-13T05:04:41.515Z,6.98
2023-05-13T05:05:41.548Z,7.06
2023-05-13T05:06:41.571Z,6.80
2023-05-13T05:07:41.583Z,6.46
2023-05-13T05:08:41.597Z,6.36
2023-05-13T05:09:41.621Z,6.16
2023-05-13T05:10:41.647Z,6.04
2023-05-13T05:11:41.652Z,6.05
2023-05-13T05:12:41.665Z,6.14
2023-05-13T05:13:41.696Z,6.13
2023-05-13T05:14:41.691Z,7.00
2023-05-13T05:15:41.730Z,9.43
2023-05-13T05:16:41.739Z,11.01
2023-05-13T05:17:41.885Z,12.86
2023-05-13T05:18:41.809Z,13.82
2023-05-13T05:19:41.771Z,14.42
2023-05-13T05:20:41.783Z,14.62
2023-05-13T05:21:41.786Z,15.14
2023-05-13T05:22:41.780Z,14.92
2023-05-13T05:23:41.790Z,15.11
2023-05-13T05:24:41.796Z,14.39
2023-05-13T05:25:41.826Z,14.11
2023-05-13T05:26:42.916Z,14.15
2023-05-13T05:27:41.813Z,13.52
2023-05-13T05:28:41.839Z,13.54
2023-05-13T05:29:41.864Z,14.16
2023-05-13T05:30:41.842Z,16.30
2023-05-13T05:31:41.961Z,18.56
2023-05-13T05:32:41.908Z,18.13
2023-05-13T05:33:41.879Z,16.88
2023-05-13T05:34:41.890Z,15.15
2023-05-13T05:35:41.911Z,13.65
2023-05-13T05:36:41.894Z,12.89
2023-05-13T05:37:41.881Z,12.08
2023-05-13T05:38:41.918Z,11.91
2023-05-13T05:39:41.939Z,12.20
2023-05-13T05:40:41.940Z,12.77
2023-05-13T05:41:41.969Z,13.24
2023-05-13T05:42:41.945Z,13.30
2023-05-13T05:43:41.984Z,12.30
2023-05-13T05:44:42.060Z,11.80
2023-05-13T05:45:42.054Z,11.94
2023-05-13T05:46:42.018Z,11.93
2023-05-13T05:47:42.081Z,11.44
2023-05-13T05:48:42.073Z,11.39
2023-05-13T05:49:42.057Z,11.63
2023-05-13T05:50:42.069Z,11.51
2023-05-13T05:51:42.080Z,11.51
2023-05-13T05:52:42.097Z,11.44
2023-05-13T05:53:42.121Z,11.32
2023-05-13T05:54:42.143Z,11.49
2023-05-13T05:55:42.114Z,11.33
2023-05-13T05:56:42.151Z,12.09
2023-05-13T05:57:42.156Z,12.93
2023-05-13T05:58:42.165Z,13.52
2023-05-13T05:59:42.161Z,13.30
2023-05-13T06:00:42.204Z,12.31
2023-05-13T06:01:42.248Z,11.85
2023-05-13T06:02:42.371Z,11.88
2023-05-13T06:03:42.357Z,11.32
2023-05-13T06:04:42.469Z,11.19
2023-05-13T06:05:42.277Z,11.02
2023-05-13T06:06:42.328Z,10.75
2023-05-13T06:07:42.314Z,10.40
2023-05-13T06:08:42.330Z,9.03
2023-05-13T06:09:42.342Z,8.47
2023-05-13T06:10:42.354Z,8.61
2023-05-13T06:11:42.385Z,8.28
2023-05-13T06:12:42.405Z,8.43
2023-05-13T06:13:42.426Z,8.82
2023-05-13T06:14:42.448Z,9.08
2023-05-13T06:15:42.488Z,9.66
2023-05-13T06:16:42.459Z,9.72
2023-05-13T06:17:42.515Z,9.64
2023-05-13T06:18:42.508Z,9.06
2023-05-13T06:19:42.507Z,8.60
2023-05-13T06:20:42.516Z,8.36
2023-05-13T06:21:42.515Z,8.37
2023-05-13T06:22:42.554Z,8.93
2023-05-13T06:23:42.557Z,8.71
2023-05-13T06:24:42.560Z,8.37
2023-05-13T06:25:42.579Z,8.11
2023-05-13T06:26:42.604Z,8.48
2023-05-13T06:27:42.610Z,8.71
2023-05-13T06:28:42.664Z,8.90
2023-05-13T06:29:42.643Z,9.31
2023-05-13T06:30:42.656Z,9.17
2023-05-13T06:31:42.702Z,9.33
2023-05-13T06:32:53.542Z,9.09
2023-05-13T06:33:43.682Z,8.72
2023-05-13T06:34:42.657Z,8.15
2023-05-13T06:35:42.652Z,7.30
2023-05-13T06:36:42.678Z,6.14
2023-05-13T06:37:42.637Z,5.40
2023-05-13T06:38:42.629Z,4.82
2023-05-13T06:39:42.649Z,4.61
2023-05-13T06:40:42.614Z,4.36
2023-05-13T06:41:42.620Z,4.35
2023-05-13T06:42:42.623Z,4.35
2023-05-13T06:43:42.598Z,4.23
2023-05-13T06:44:42.584Z,4.65
2023-05-13T06:45:42.592Z,4.49
2023-05-13T06:46:42.570Z,4.23
2023-05-13T06:47:42.634Z,4.25
2023-05-13T06:48:42.578Z,4.42
2023-05-13T06:49:42.549Z,4.31
2023-05-13T06:50:42.545Z,4.06
2023-05-13T06:51:42.554Z,3.91
2023-05-13T06:52:42.531Z,3.92
2023-05-13T06:53:42.533Z,3.49
2023-05-13T06:54:42.552Z,2.79
2023-05-13T06:55:42.536Z,2.55
2023-05-13T06:56:42.512Z,2.36
2023-05-13T06:57:43.609Z,2.24
2023-05-13T06:58:42.479Z,2.22
2023-05-13T06:59:42.538Z,2.18
2023-05-13T07:00:42.547Z,2.21
2023-05-13T07:01:42.571Z,2.53
2023-05-13T07:02:42.627Z,2.75
2023-05-13T07:03:42.625Z,2.88
2023-05-13T07:04:42.602Z,2.83
2023-05-13T07:05:42.614Z,3.11
2023-05-13T07:06:42.646Z,3.34
2023-05-13T07:07:42.638Z,3.53
2023-05-13T07:08:42.657Z,4.05
2023-05-13T07:09:42.676Z,4.47
2023-05-13T07:10:42.677Z,4.85
2023-05-13T07:11:42.688Z,4.91
2023-05-13T07:12:42.710Z,4.52
2023-05-13T07:13:42.716Z,3.99
2023-05-13T07:14:42.743Z,3.72
2023-05-13T07:15:42.753Z,3.46
2023-05-13T07:16:42.790Z,3.39
2023-05-13T07:17:42.935Z,3.18
2023-05-13T07:18:42.804Z,3.01
2023-05-13T07:19:42.804Z,2.89
2023-05-13T07:20:42.820Z,2.88
2023-05-13T07:21:42.802Z,2.93
2023-05-13T07:22:42.815Z,2.81
2023-05-13T07:23:44.631Z,2.97
2023-05-13T07:24:42.855Z,3.32
2023-05-13T07:25:42.836Z,3.29
2023-05-13T07:26:42.836Z,3.27
2023-05-13T07:27:42.853Z,3.41
2023-05-13T07:28:42.881Z,3.58
2023-05-13T07:29:42.901Z,3.49
2023-05-13T07:30:42.944Z,3.09
2023-05-13T07:31:42.926Z,3.10
2023-05-13T07:32:42.955Z,2.86
2023-05-13T07:33:42.995Z,2.62
2023-05-13T07:34:43.028Z,2.50
2023-05-13T07:35:43.048Z,2.50
2023-05-13T07:36:43.062Z,2.58
2023-05-13T07:37:43.064Z,2.67
2023-05-13T07:38:43.086Z,2.80
2023-05-13T07:39:43.091Z,2.76
2023-05-13T07:40:43.122Z,2.67
2023-05-13T07:41:43.120Z,2.81
2023-05-13T07:42:43.136Z,2.80
2023-05-13T07:43:43.165Z,2.72
2023-05-13T07:44:43.193Z,2.45
2023-05-13T07:45:43.177Z,1.67
2023-05-13T07:46:43.206Z,1.32
2023-05-13T07:47:44.585Z,1.14
2023-05-13T07:48:43.208Z,1.14
2023-05-13T07:49:43.216Z,1.22
2023-05-13T07:50:43.221Z,1.29
2023-05-13T07:51:43.298Z,1.13
2023-05-13T07:52:43.209Z,0.95
2023-05-13T07:53:43.321Z,0.92
2023-05-13T07:54:43.408Z,0.92
2023-05-13T07:55:43.436Z,0.93
2023-05-13T07:56:43.432Z,0.92
2023-05-13T07:57:43.463Z,0.85
2023-05-13T07:58:43.499Z,0.74
2023-05-13T07:59:44.764Z,0.69
2023-05-13T08:00:43.509Z,0.76
2023-05-13T08:01:43.519Z,0.82
2023-05-13T08:02:43.612Z,0.87
2023-05-13T08:03:43.676Z,0.88
2023-05-13T08:04:43.626Z,0.96
2023-05-13T08:05:43.607Z,0.96
2023-05-13T08:06:43.635Z,0.90
2023-05-13T08:07:43.658Z,0.85
2023-05-13T08:08:43.684Z,0.78
2023-05-13T08:09:43.704Z,0.83
2023-05-13T08:10:43.711Z,0.94
2023-05-13T08:11:43.742Z,0.97
2023-05-13T08:12:43.765Z,0.96
2023-05-13T08:13:43.795Z,0.97
2023-05-13T08:14:43.816Z,1.08
2023-05-13T08:15:43.821Z,1.20
2023-05-13T08:16:43.864Z,1.61
2023-05-13T08:17:43.920Z,2.03
2023-05-13T08:18:43.928Z,2.08
2023-05-13T08:19:43.914Z,1.88
2023-05-13T08:20:43.923Z,1.75
2023-05-13T08:21:43.922Z,1.75
2023-05-13T08:22:43.949Z,1.94
2023-05-13T08:23:45.989Z,1.80
2023-05-13T08:24:43.969Z,1.68
2023-05-13T08:25:44.012Z,1.71
2023-05-13T08:26:44.028Z,1.73
2023-05-13T08:27:44.001Z,1.70
2023-05-13T08:28:44.004Z,1.65
2023-05-13T08:29:44.018Z,1.72
2023-05-13T08:30:44.023Z,1.71
2023-05-13T08:31:44.073Z,1.41
2023-05-13T08:32:44.046Z,1.08
2023-05-13T08:33:44.040Z,0.95
2023-05-13T08:34:44.042Z,0.69
2023-05-13T08:35:44.850Z,0.62
2023-05-13T08:36:44.039Z,0.64
2023-05-13T08:37:44.049Z,0.64
2023-05-13T08:38:44.052Z,0.62
2023-05-13T08:39:44.063Z,0.54
2023-05-13T08:40:44.082Z,0.50
2023-05-13T08:41:44.075Z,0.50
2023-05-13T08:42:44.088Z,0.50
2023-05-13T08:43:44.113Z,0.52
2023-05-13T08:44:44.126Z,0.60
2023-05-13T08:45:44.132Z,0.64
2023-05-13T08:46:44.133Z,0.69
2023-05-13T08:47:44.215Z,0.63
2023-05-13T08:48:44.240Z,0.62
2023-05-13T08:49:44.350Z,0.56
2023-05-13T08:50:44.374Z,0.63
2023-05-13T08:51:44.436Z,0.48
2023-05-13T08:52:44.499Z,0.42
2023-05-13T08:53:44.564Z,0.43
2023-05-13T08:54:44.622Z,0.51
2023-05-13T08:55:44.660Z,0.48
2023-05-13T08:56:44.725Z,0.41
2023-05-13T08:57:44.772Z,0.41
2023-05-13T08:58:44.795Z,0.45
2023-05-13T08:59:44.831Z,0.52
2023-05-13T09:00:44.869Z,0.61
2023-05-13T09:01:44.982Z,0.68
2023-05-13T09:02:44.944Z,0.69
2023-05-13T09:03:44.969Z,0.73
2023-05-13T09:04:45.068Z,0.53
2023-05-13T09:05:45.057Z,0.54
2023-05-13T09:06:45.090Z,0.68
2023-05-13T09:07:45.113Z,0.80
2023-05-13T09:08:45.145Z,0.74
2023-05-13T09:09:45.162Z,0.71
2023-05-13T09:10:45.216Z,0.65
2023-05-13T09:11:45.244Z,0.57
2023-05-13T09:12:45.349Z,0.53
2023-05-13T09:13:45.353Z,0.63
2023-05-13T09:14:45.424Z,0.72
2023-05-13T09:15:45.497Z,0.73
2023-05-13T09:16:45.499Z,0.78
2023-05-13T09:17:45.665Z,0.79
2023-05-13T09:18:45.648Z,0.71
2023-05-13T09:19:45.717Z,0.73
2023-05-13T09:20:45.633Z,0.73
2023-05-13T09:21:45.657Z,0.64
2023-05-13T09:22:45.672Z,0.60
2023-05-13T09:23:45.717Z,0.59
2023-05-13T09:24:45.747Z,0.52
2023-05-13T09:25:45.800Z,0.45
2023-05-13T09:26:45.817Z,0.48
2023-05-13T09:27:45.842Z,0.48
2023-05-13T09:28:45.917Z,0.35
2023-05-13T09:29:45.932Z,0.34
2023-05-13T09:30:46.804Z,0.34
2023-05-13T09:31:46.107Z,0.34
2023-05-13T09:32:46.030Z,0.35
2023-05-13T09:33:46.005Z,0.50
2023-05-13T09:34:46.026Z,0.55
2023-05-13T09:35:46.037Z,0.57
2023-05-13T09:36:46.081Z,0.56
2023-05-13T09:37:46.082Z,0.52
2023-05-13T09:38:46.096Z,0.46
2023-05-13T09:39:46.114Z,0.48
2023-05-13T09:40:46.102Z,0.45
2023-05-13T09:41:46.115Z,0.47
2023-05-13T09:42:46.118Z,0.46
2023-05-13T09:43:46.109Z,0.50
2023-05-13T09:44:46.122Z,0.54
2023-05-13T09:45:46.115Z,0.64
2023-05-13T09:46:46.172Z,0.72
2023-05-13T09:47:46.128Z,0.73
2023-05-13T09:48:46.161Z,0.68
2023-05-13T09:49:46.255Z,0.81
2023-05-13T09:50:46.264Z,0.97
2023-05-13T09:51:46.314Z,1.04
2023-05-13T09:52:46.377Z,0.97
2023-05-13T09:53:46.398Z,0.94
2023-05-13T09:54:46.499Z,0.77
2023-05-13T09:55:46.525Z,0.66
2023-05-13T09:56:46.554Z,0.68
2023-05-13T09:57:46.630Z,0.84
2023-05-13T09:58:46.697Z,0.96
2023-05-13T09:59:46.752Z,1.20
2023-05-13T10:00:47.118Z,1.38
2023-05-13T10:01:46.997Z,1.15
2023-05-13T10:02:46.949Z,0.89
2023-05-13T10:03:47.044Z,0.71
2023-05-13T10:04:47.025Z,0.53
2023-05-13T10:05:47.052Z,0.49
2023-05-13T10:06:47.123Z,0.50
2023-05-13T10:07:47.174Z,0.52
2023-05-13T10:08:47.219Z,0.57
2023-05-13T10:09:47.252Z,0.78
2023-05-13T10:10:47.326Z,0.94
2023-05-13T10:11:47.364Z,1.08
2023-05-13T10:12:47.421Z,1.19
2023-05-13T10:13:47.462Z,0.83
2023-05-13T10:14:47.497Z,0.68
2023-05-13T10:15:47.535Z,0.66
2023-05-13T10:16:47.624Z,0.61
2023-05-13T10:17:47.609Z,0.71
2023-05-13T10:18:47.619Z,0.83
2023-05-13T10:19:47.592Z,0.82
2023-05-13T10:20:47.645Z,0.58
2023-05-13T10:21:47.613Z,0.54
2023-05-13T10:22:47.649Z,0.56
2023-05-13T10:23:47.644Z,0.56
2023-05-13T10:24:47.666Z,0.53
2023-05-13T10:25:47.689Z,0.53
2023-05-13T10:26:47.696Z,0.47
2023-05-13T10:27:47.687Z,0.43
2023-05-13T10:28:47.712Z,0.45
2023-05-13T10:29:47.702Z,0.43
2023-05-13T10:30:47.695Z,0.44
2023-05-13T10:31:47.784Z,0.51
2023-05-13T10:32:47.704Z,0.55
2023-05-13T10:33:47.726Z,0.66
2023-05-13T10:34:47.805Z,0.65
2023-05-13T10:35:47.837Z,0.52
2023-05-13T10:36:47.880Z,0.50
2023-05-13T10:37:47.917Z,0.53
2023-05-13T10:38:47.971Z,0.57
2023-05-13T10:39:48.051Z,0.60
2023-05-13T10:40:48.103Z,0.70
2023-05-13T10:41:48.101Z,0.77
2023-05-13T10:42:48.127Z,0.43
2023-05-13T10:43:48.177Z,0.34
2023-05-13T10:44:48.246Z,0.34
2023-05-13T10:45:48.336Z,0.37
2023-05-13T10:46:48.410Z,0.53
2023-05-13T10:47:48.483Z,0.69
2023-05-13T10:48:48.482Z,0.87
2023-05-13T10:49:48.535Z,0.92
2023-05-13T10:50:48.581Z,0.69
2023-05-13T10:51:48.646Z,0.61
2023-05-13T10:52:48.675Z,0.51
2023-05-13T10:53:48.693Z,0.49
2023-05-13T10:54:48.747Z,0.50
2023-05-13T10:55:48.771Z,0.48
2023-05-13T10:56:48.832Z,0.53
2023-05-13T10:57:48.854Z,0.62
2023-05-13T10:58:48.896Z,0.49
2023-05-13T10:59:48.933Z,0.45
2023-05-13T11:00:48.980Z,0.41
2023-05-13T11:01:49.095Z,0.52
2023-05-13T11:02:49.075Z,0.52
2023-05-13T11:03:49.132Z,0.56
2023-05-13T11:04:49.035Z,0.64
2023-05-13T11:05:49.079Z,0.74
2023-05-13T11:06:49.129Z,0.70
2023-05-13T11:07:49.171Z,0.74
2023-05-13T11:08:49.209Z,0.68
2023-05-13T11:09:49.288Z,0.55
2023-05-13T11:10:49.331Z,0.47
2023-05-13T11:11:49.387Z,0.53
2023-05-13T11:12:49.452Z,0.56
2023-05-13T11:13:49.528Z,0.62
2023-05-13T11:14:49.554Z,0.72
2023-05-13T11:15:49.673Z,0.69
2023-05-13T11:16:49.689Z,0.63
2023-05-13T11:17:49.710Z,0.64
2023-05-13T11:18:49.802Z,0.65
2023-05-13T11:19:49.831Z,0.74
2023-05-13T11:20:52.621Z,0.78
2023-05-13T11:21:49.878Z,0.70
2023-05-13T11:22:49.858Z,0.66
2023-05-13T11:23:49.852Z,0.65
2023-05-13T11:24:49.862Z,0.71
2023-05-13T11:25:49.837Z,0.74
2023-05-13T11:26:49.867Z,0.66
2023-05-13T11:27:49.819Z,0.55
2023-05-13T11:28:49.813Z,0.45
2023-05-13T11:29:49.830Z,0.54
2023-05-13T11:30:49.882Z,0.49
2023-05-13T11:31:49.851Z,0.52
2023-05-13T11:32:49.855Z,0.53
2023-05-13T11:33:49.795Z,0.44
2023-05-13T11:34:49.788Z,0.45
2023-05-13T11:35:49.796Z,0.46
2023-05-13T11:36:49.882Z,0.45
2023-05-13T11:37:49.771Z,0.52
2023-05-13T11:38:49.768Z,0.63
2023-05-13T11:39:49.742Z,0.50
2023-05-13T11:40:49.751Z,0.51
2023-05-13T11:41:49.732Z,0.58
2023-05-13T11:42:49.720Z,0.50
2023-05-13T11:43:49.717Z,0.50
2023-05-13T11:44:49.721Z,0.50
2023-05-13T11:45:49.762Z,0.50
2023-05-13T11:46:49.716Z,0.54
2023-05-13T11:47:49.755Z,0.51
2023-05-13T11:48:49.682Z,0.56
2023-05-13T11:49:49.672Z,0.50
2023-05-13T11:50:49.715Z,0.52
2023-05-13T11:51:49.700Z,0.62
2023-05-13T11:52:49.651Z,0.57
2023-05-13T11:53:49.688Z,0.52
2023-05-13T11:54:49.680Z,0.51
2023-05-13T11:55:49.692Z,0.55
2023-05-13T11:56:49.627Z,0.56
2023-05-13T11:57:49.677Z,0.45
2023-05-13T11:58:49.631Z,0.37
2023-05-13T11:59:49.610Z,0.51
2023-05-13T12:00:49.612Z,0.64
2023-05-13T12:01:49.650Z,0.57
2023-05-13T12:02:49.756Z,0.59
2023-05-13T12:03:49.580Z,0.55
2023-05-13T12:04:49.615Z,0.56
2023-05-13T12:05:49.611Z,0.58
2023-05-13T12:06:49.576Z,0.56
2023-05-13T12:07:49.571Z,0.86
2023-05-13T12:08:49.564Z,0.76
2023-05-13T12:09:49.561Z,0.73
2023-05-13T12:10:49.552Z,0.94
2023-05-13T12:11:49.551Z,0.91
2023-05-13T12:12:49.595Z,0.79
2023-05-13T12:13:49.649Z,0.82
2023-05-13T12:14:49.688Z,0.98
2023-05-13T12:15:49.816Z,1.09
2023-05-13T12:16:49.809Z,1.16
2023-05-13T12:17:49.966Z,1.21
2023-05-13T12:18:49.968Z,1.28
2023-05-13T12:19:49.969Z,1.09
2023-05-13T12:20:50.036Z,1.03
2023-05-13T12:21:50.053Z,0.67
2023-05-13T12:22:50.124Z,0.63
2023-05-13T12:23:50.249Z,0.80
2023-05-13T12:24:50.235Z,0.93
2023-05-13T12:25:50.287Z,1.02
2023-05-13T12:26:50.308Z,1.31
2023-05-13T12:27:50.329Z,1.62
2023-05-13T12:28:50.379Z,1.57
2023-05-13T12:29:50.385Z,1.33
2023-05-13T12:30:50.458Z,0.98
2023-05-13T12:31:50.523Z,1.00
2023-05-13T12:32:50.515Z,1.23
2023-05-13T12:33:50.473Z,0.83
2023-05-13T12:34:50.505Z,0.71
2023-05-13T12:35:50.510Z,0.77
2023-05-13T12:36:50.563Z,0.98
2023-05-13T12:37:50.560Z,1.21
2023-05-13T12:38:50.591Z,1.44
2023-05-13T12:39:50.590Z,1.47
2023-05-13T12:40:50.659Z,1.44
2023-05-13T12:41:50.666Z,1.29
2023-05-13T12:42:50.675Z,1.28
2023-05-13T12:43:50.726Z,1.35
2023-05-13T12:44:50.773Z,2.00
2023-05-13T12:45:50.807Z,1.62
2023-05-13T12:46:50.850Z,1.38
2023-05-13T12:47:50.937Z,1.49
2023-05-13T12:48:50.876Z,2.02
2023-05-13T12:49:50.908Z,2.50
2023-05-13T12:50:50.921Z,2.05
2023-05-13T12:51:50.932Z,2.28
2023-05-13T12:52:50.954Z,2.70
2023-05-13T12:53:50.974Z,3.16
2023-05-13T12:54:51.016Z,2.77
2023-05-13T12:55:51.002Z,2.51
2023-05-13T12:56:51.028Z,2.71
2023-05-13T12:57:51.029Z,2.54
2023-05-13T12:58:51.035Z,2.54
2023-05-13T12:59:51.031Z,3.06
2023-05-13T13:00:51.116Z,3.61
2023-05-13T13:01:51.053Z,3.74
2023-05-13T13:02:51.092Z,4.41
2023-05-13T13:03:51.229Z,3.94
2023-05-13T13:04:51.136Z,2.33
2023-05-13T13:05:51.128Z,1.77
2023-05-13T13:06:51.110Z,1.81
2023-05-13T13:07:51.130Z,1.36
2023-05-13T13:08:51.184Z,1.23
2023-05-13T13:09:51.241Z,0.96
2023-05-13T13:10:51.305Z,0.98
2023-05-13T13:11:51.282Z,0.92
2023-05-13T13:12:51.285Z,0.85